createdAt,value
2017-10-16T00:01:12.261Z,53.50
2017-10-16T00:03:41.248Z,53.80
2017-10-16T00:06:09.129Z,53.80
2017-10-16T00:08:37.078Z,53.50
2017-10-16T00:11:04.944Z,53.70
2017-10-16T00:13:32.747Z,53.70
2017-10-16T00:16:00.606Z,53.80
2017-10-16T00:18:28.440Z,54.00
2017-10-16T00:20:56.272Z,54.00
2017-10-16T00:23:24.888Z,53.30
2017-10-16T00:25:52.730Z,53.30
2017-10-16T00:28:21.401Z,53.80
2017-10-16T00:30:50.058Z,53.90
2017-10-16T00:33:17.980Z,53.80
2017-10-16T00:35:45.866Z,53.80
2017-10-16T00:38:13.728Z,53.70
2017-10-16T00:40:41.956Z,53.40
2017-10-16T00:43:09.916Z,53.60
2017-10-16T00:45:37.867Z,52.50
2017-10-16T00:48:05.749Z,53.40
2017-10-16T00:50:33.688Z,53.20
2017-10-16T00:53:01.560Z,53.00
2017-10-16T00:55:29.623Z,52.90
2017-10-16T00:57:57.616Z,52.40
2017-10-16T01:00:25.581Z,52.40
2017-10-16T01:02:53.468Z,51.90
2017-10-16T01:05:21.365Z,51.70
2017-10-16T01:07:50.006Z,51.70
2017-10-16T01:10:17.855Z,51.70
2017-10-16T01:12:45.767Z,50.80
2017-10-16T05:39:07.759Z,48.00
2017-10-16T05:41:35.880Z,48.40
2017-10-16T05:44:03.836Z,48.50
2017-10-16T05:46:31.906Z,48.70
2017-10-16T05:48:59.814Z,48.20
2017-10-16T05:51:27.708Z,48.20
2017-10-16T05:53:56.356Z,48.70
2017-10-16T05:56:24.184Z,48.70
2017-10-16T05:58:52.048Z,48.70
2017-10-16T06:01:19.916Z,48.90
2017-10-16T06:03:47.828Z,49.00
2017-10-16T06:06:15.836Z,48.80
2017-10-16T06:08:44.735Z,48.60
2017-10-16T06:11:12.714Z,48.60
2017-10-16T06:13:40.649Z,48.70
2017-10-16T06:16:09.395Z,48.90
2017-10-16T06:18:37.318Z,48.80
2017-10-16T06:21:05.181Z,48.80
2017-10-16T06:23:33.186Z,48.80
2017-10-16T06:26:01.101Z,48.90
2017-10-16T06:28:29.823Z,48.70
2017-10-16T06:30:57.749Z,48.70
2017-10-16T06:33:25.661Z,48.60
2017-10-16T06:35:53.655Z,48.60
2017-10-16T06:38:21.552Z,48.20
2017-10-16T06:40:49.451Z,48.30
2017-10-16T06:43:17.317Z,48.60
2017-10-16T06:45:45.281Z,48.40
2017-10-16T06:48:13.229Z,48.70
2017-10-16T06:50:41.145Z,48.30
2017-10-16T06:53:09.218Z,48.40
2017-10-16T06:55:37.093Z,48.00
2017-10-16T06:58:05.067Z,48.20
2017-10-16T07:00:33.096Z,48.00
2017-10-16T07:03:01.004Z,47.80
2017-10-16T07:05:28.827Z,47.70
2017-10-16T07:07:56.967Z,47.60
2017-10-16T07:10:24.857Z,47.50
2017-10-16T07:12:53.521Z,46.90
2017-10-16T07:15:21.442Z,46.90
2017-10-16T07:17:49.279Z,46.80
2017-10-16T07:20:17.853Z,46.00
2017-10-16T07:22:46.497Z,45.50
2017-10-16T07:25:14.430Z,45.50
2017-10-16T07:27:42.266Z,45.80
2017-10-16T07:30:10.900Z,44.90
2017-10-16T07:32:38.768Z,44.90
2017-10-16T07:35:06.660Z,44.30
2017-10-16T07:37:34.527Z,44.30
2017-10-16T07:40:02.359Z,44.30
2017-10-16T07:42:30.269Z,44.30
2017-10-16T07:44:59.036Z,44.10
2017-10-16T07:47:26.963Z,44.10
2017-10-16T07:49:55.099Z,44.20
2017-10-16T07:52:22.990Z,44.20
2017-10-16T07:54:51.799Z,43.90
2017-10-16T07:57:19.626Z,43.90
2017-10-16T07:59:47.465Z,43.40
2017-10-16T08:02:16.200Z,43.00
2017-10-16T08:04:44.815Z,43.00
2017-10-16T08:07:12.681Z,43.00
2017-10-16T08:09:40.589Z,42.70
2017-10-16T08:12:08.427Z,42.60
2017-10-16T08:14:36.407Z,42.50
2017-10-16T08:17:05.047Z,42.70
2017-10-16T08:19:33.001Z,42.70
2017-10-16T08:22:01.608Z,42.10
2017-10-16T08:24:29.804Z,42.10
2017-10-16T08:26:57.827Z,42.50
2017-10-16T08:29:26.577Z,42.50
2017-10-16T08:31:55.509Z,42.50
2017-10-16T08:34:23.449Z,42.30
2017-10-16T08:36:51.389Z,42.40
2017-10-16T08:39:19.388Z,42.30
2017-10-16T08:41:47.660Z,42.50
2017-10-16T08:44:15.611Z,42.50
2017-10-16T08:46:44.398Z,41.60
2017-10-16T08:49:12.421Z,41.60
2017-10-16T08:51:41.127Z,41.50
2017-10-16T08:54:09.959Z,41.60
2017-10-16T08:56:37.908Z,41.60
2017-10-16T08:59:05.857Z,41.90
2017-10-16T09:01:33.813Z,41.80
2017-10-16T09:04:01.812Z,42.00
2017-10-16T09:06:29.867Z,41.60
2017-10-16T09:08:57.927Z,41.50
2017-10-16T09:11:25.948Z,41.30
2017-10-16T09:13:53.868Z,41.00
2017-10-16T09:16:21.766Z,40.70
2017-10-16T09:18:49.724Z,40.00
2017-10-16T09:21:17.648Z,40.20
2017-10-16T09:23:46.375Z,40.10
2017-10-16T09:26:14.424Z,40.10
2017-10-16T09:28:42.652Z,39.80
2017-10-16T09:31:11.237Z,39.70
2017-10-16T09:33:39.325Z,39.60
2017-10-16T09:36:08.091Z,39.70
2017-10-16T09:38:36.036Z,39.70
2017-10-16T09:41:04.014Z,39.60
2017-10-16T09:43:31.969Z,39.70
2017-10-16T09:46:00.223Z,39.10
2017-10-16T09:48:28.217Z,39.20
2017-10-16T09:50:56.230Z,39.30
2017-10-16T09:53:24.977Z,39.70
2017-10-16T09:55:53.114Z,39.70
2017-10-16T09:58:21.000Z,39.60
2017-10-16T10:00:49.040Z,39.70
2017-10-16T10:03:17.038Z,39.00
2017-10-16T10:05:45.384Z,39.30
2017-10-16T10:08:14.064Z,38.80
2017-10-16T10:10:42.747Z,38.50
2017-10-16T10:13:12.584Z,38.20
2017-10-16T10:15:40.498Z,38.10
2017-10-16T10:18:08.470Z,38.50
2017-10-16T10:20:36.342Z,38.80
2017-10-16T10:23:04.404Z,38.40
2017-10-16T10:25:32.320Z,38.20
2017-10-16T10:28:00.145Z,38.10
2017-10-16T10:30:27.974Z,37.60
2017-10-16T10:32:55.981Z,37.60
2017-10-16T10:35:23.850Z,37.70
2017-10-16T10:37:52.628Z,37.40
2017-10-16T10:40:20.490Z,37.40
2017-10-16T10:42:48.451Z,37.90
2017-10-16T10:45:16.382Z,38.70
2017-10-16T10:47:44.399Z,39.30
2017-10-16T10:50:12.255Z,40.20
2017-10-16T10:52:40.321Z,40.30
2017-10-16T10:55:08.205Z,40.70
2017-10-16T10:57:36.192Z,41.00
2017-10-16T11:00:04.064Z,40.90
2017-10-16T11:02:31.975Z,40.20
2017-10-16T11:04:59.825Z,41.30
2017-10-16T11:07:27.774Z,40.60
2017-10-16T11:09:56.476Z,41.90
2017-10-16T11:12:25.528Z,41.90
2017-10-16T11:14:53.559Z,41.90
2017-10-16T11:17:21.540Z,42.20
2017-10-16T11:19:49.489Z,42.30
2017-10-16T11:22:18.175Z,42.40
2017-10-16T11:24:46.095Z,42.40
2017-10-16T11:27:14.205Z,42.70
2017-10-16T11:29:42.200Z,42.50
2017-10-16T11:32:10.607Z,42.40
2017-10-16T11:34:38.565Z,42.50
2017-10-16T11:37:06.493Z,42.30
2017-10-16T11:39:34.428Z,42.60
2017-10-16T11:42:02.452Z,42.70
2017-10-16T11:44:30.398Z,42.70
2017-10-16T11:46:58.431Z,42.60
2017-10-16T11:49:27.081Z,42.40
2017-10-16T11:51:55.271Z,42.40
2017-10-16T11:54:23.152Z,42.00
2017-10-16T11:56:51.127Z,42.00
2017-10-16T11:59:18.995Z,41.90
2017-10-16T12:01:47.091Z,41.90
2017-10-16T12:04:15.867Z,41.50
2017-10-16T12:06:44.575Z,41.80
2017-10-16T12:09:12.688Z,41.80
2017-10-16T12:11:41.364Z,42.30
2017-10-16T12:14:09.357Z,42.20
2017-10-16T12:16:37.296Z,42.10
2017-10-16T12:19:05.230Z,42.00
2017-10-16T12:21:34.184Z,42.00
2017-10-16T12:24:02.128Z,42.00
2017-10-16T12:26:30.069Z,42.40
2017-10-16T12:28:58.013Z,42.50
2017-10-16T12:31:26.723Z,42.60
2017-10-16T12:33:54.636Z,42.50
2017-10-16T12:36:22.563Z,42.60
2017-10-16T12:38:50.560Z,43.10
2017-10-16T12:41:18.479Z,43.70
2017-10-16T12:43:47.393Z,44.40
2017-10-16T12:46:15.459Z,44.40
2017-10-16T12:48:43.395Z,44.50
2017-10-16T12:51:11.286Z,44.80
2017-10-16T12:53:39.237Z,45.00
2017-10-16T12:56:07.936Z,45.20
2017-10-16T12:58:35.960Z,45.20
2017-10-16T13:01:03.875Z,45.70
2017-10-16T13:03:31.999Z,45.80
2017-10-16T13:05:59.935Z,45.70
2017-10-16T13:08:27.920Z,45.60
2017-10-16T13:10:55.918Z,46.00
2017-10-16T13:13:24.080Z,46.10
2017-10-16T13:15:52.122Z,46.30
2017-10-16T13:18:20.096Z,46.80
2017-10-16T13:20:48.261Z,46.90
2017-10-16T13:23:17.775Z,46.80
2017-10-16T13:25:46.078Z,46.90
2017-10-16T13:28:16.078Z,47.10
2017-10-16T13:30:46.454Z,47.00
2017-10-16T13:33:15.129Z,47.40
2017-10-16T13:35:43.207Z,47.50
2017-10-16T13:38:12.106Z,47.40
2017-10-16T13:40:40.083Z,47.40
2017-10-16T13:43:07.975Z,47.60
2017-10-16T13:45:35.965Z,47.50
2017-10-16T13:48:04.032Z,47.30
2017-10-16T13:50:31.934Z,47.50
2017-10-16T13:53:01.551Z,48.30
2017-10-16T13:55:30.252Z,47.60
2017-10-16T13:58:00.200Z,47.50
2017-10-16T14:00:28.185Z,47.70
2017-10-16T14:02:56.235Z,47.70
2017-10-16T14:05:24.155Z,47.50
2017-10-16T14:07:52.818Z,48.20
2017-10-16T14:10:20.797Z,48.20
2017-10-16T14:12:48.704Z,48.10
2017-10-16T14:15:16.619Z,48.30
2017-10-16T14:17:45.088Z,48.30
2017-10-16T14:20:13.043Z,48.10
2017-10-16T14:22:41.427Z,48.20
2017-10-16T14:25:09.513Z,48.30
2017-10-16T14:30:10.858Z,48.70
2017-10-16T14:32:38.816Z,48.80
2017-10-16T14:35:12.750Z,48.50
2017-10-16T14:37:45.208Z,48.60
2017-10-16T14:40:13.551Z,48.70
2017-10-16T14:42:41.595Z,48.50
2017-10-16T14:45:10.288Z,48.70
2017-10-16T14:47:38.987Z,48.50
2017-10-16T14:50:07.668Z,48.60
2017-10-16T14:52:36.408Z,48.80
2017-10-16T14:55:04.717Z,48.80
2017-10-16T14:57:32.743Z,48.70
2017-10-16T15:00:00.683Z,48.90
2017-10-16T15:02:28.616Z,49.00
2017-10-16T15:04:56.834Z,49.10
2017-10-16T15:07:24.782Z,49.30
2017-10-16T15:09:53.569Z,49.40
2017-10-16T15:12:22.282Z,49.20
2017-10-16T15:14:50.241Z,49.20
2017-10-16T15:17:23.627Z,49.40
2017-10-16T15:19:51.801Z,49.50
2017-10-16T15:22:19.789Z,49.80
2017-10-16T15:24:47.901Z,49.70
2017-10-16T15:27:15.887Z,49.70
2017-10-16T15:29:43.811Z,49.60
2017-10-16T15:32:11.714Z,49.70
2017-10-16T15:34:39.704Z,49.70
2017-10-16T15:37:08.612Z,50.10
2017-10-16T15:39:36.546Z,50.10
2017-10-16T15:42:04.441Z,50.90
2017-10-16T15:44:33.258Z,50.60
2017-10-16T15:47:01.201Z,50.60
2017-10-16T15:49:29.249Z,50.70
2017-10-16T15:51:57.956Z,50.70
2017-10-16T15:54:25.892Z,50.60
2017-10-16T15:56:53.916Z,50.80
2017-10-16T15:59:21.910Z,50.80
2017-10-16T16:01:49.890Z,51.00
2017-10-16T16:04:18.233Z,50.90
2017-10-16T16:06:46.178Z,51.10
2017-10-16T16:09:15.967Z,51.20
2017-10-16T16:11:44.924Z,51.40
2017-10-16T16:14:12.936Z,51.30
2017-10-16T16:16:41.681Z,51.20
2017-10-16T16:19:09.695Z,51.10
2017-10-16T16:21:38.357Z,51.30
2017-10-16T16:24:06.287Z,51.30
2017-10-16T16:26:34.235Z,51.20
2017-10-16T16:29:02.243Z,51.40
2017-10-16T16:31:30.168Z,51.30
2017-10-16T16:36:41.241Z,51.30
2017-10-16T16:39:09.917Z,51.70
2017-10-16T16:41:38.016Z,51.70
2017-10-16T16:44:05.869Z,52.30
2017-10-16T16:46:34.543Z,51.90
2017-10-16T16:49:03.212Z,52.10
2017-10-16T16:51:31.199Z,52.10
2017-10-16T16:53:59.819Z,51.70
2017-10-16T16:56:27.703Z,51.70
2017-10-16T16:58:55.611Z,51.90
2017-10-16T17:01:23.579Z,52.00
2017-10-16T17:03:51.539Z,52.10
2017-10-16T17:06:19.455Z,52.20
2017-10-16T17:08:47.467Z,52.30
2017-10-16T17:11:15.525Z,52.20
2017-10-16T17:13:43.515Z,52.20
2017-10-16T17:16:11.835Z,52.40
2017-10-16T17:18:39.673Z,52.50
2017-10-16T17:21:07.575Z,52.60
2017-10-16T17:23:35.449Z,52.20
2017-10-16T17:26:03.396Z,53.00
2017-10-16T17:28:32.099Z,53.30
2017-10-16T17:31:00.003Z,53.30
2017-10-16T17:33:27.871Z,53.30
2017-10-16T17:35:55.773Z,53.50
2017-10-16T17:38:24.497Z,53.60
2017-10-16T17:40:52.495Z,53.60
2017-10-16T17:43:20.392Z,53.70
2017-10-16T17:45:51.679Z,53.80
2017-10-16T17:48:19.932Z,53.80
2017-10-16T17:50:48.396Z,53.80
2017-10-16T17:53:17.189Z,53.80
2017-10-16T17:55:45.911Z,53.80
2017-10-16T17:58:14.604Z,53.70
2017-10-16T18:00:42.623Z,53.70
2017-10-16T18:03:11.263Z,54.50
2017-10-16T18:05:39.198Z,54.50
2017-10-16T18:08:07.451Z,54.50
2017-10-16T18:10:36.111Z,54.40
2017-10-16T18:13:04.015Z,54.30
2017-10-16T18:15:32.672Z,54.40
2017-10-16T18:18:00.590Z,54.40
2017-10-16T18:20:28.564Z,54.30
2017-10-16T18:22:56.575Z,54.40
2017-10-16T18:25:26.255Z,54.60
2017-10-16T18:27:54.188Z,54.60
2017-10-16T18:30:22.174Z,54.60
2017-10-16T18:32:50.107Z,54.70
2017-10-16T18:35:18.965Z,54.80
2017-10-16T18:37:46.938Z,54.70
2017-10-16T18:40:15.174Z,54.90
2017-10-16T18:42:43.328Z,54.70
2017-10-16T18:45:12.063Z,54.90
2017-10-16T18:47:40.038Z,54.90
2017-10-16T18:50:07.984Z,54.90
2017-10-16T18:52:35.883Z,55.20
2017-10-16T18:55:03.744Z,55.20
2017-10-16T18:57:31.649Z,55.20
2017-10-16T19:00:00.268Z,55.20
2017-10-16T19:02:28.273Z,55.10
2017-10-16T19:04:56.195Z,55.10
2017-10-16T19:07:26.159Z,55.30
2017-10-16T19:09:54.113Z,55.40
2017-10-16T19:12:22.451Z,55.40
2017-10-16T19:14:50.399Z,55.30
2017-10-16T19:17:18.941Z,55.40
2017-10-16T19:19:46.918Z,55.10
2017-10-16T19:22:14.872Z,55.20
2017-10-16T19:24:42.794Z,55.10
2017-10-16T19:27:11.509Z,55.30
2017-10-16T19:29:39.379Z,55.30
2017-10-16T19:32:07.495Z,55.30
2017-10-16T19:34:35.436Z,55.20
2017-10-16T19:37:03.320Z,55.30
2017-10-16T19:39:31.224Z,55.20
2017-10-16T19:42:00.030Z,55.30
2017-10-16T19:44:28.119Z,55.30
2017-10-16T19:46:56.157Z,55.30
2017-10-16T19:49:24.810Z,55.20
2017-10-16T19:51:52.824Z,55.20
2017-10-16T19:54:20.734Z,55.20
2017-10-16T19:56:48.649Z,55.20
2017-10-16T19:59:17.285Z,55.20
2017-10-16T20:01:45.246Z,55.10
2017-10-16T20:04:13.210Z,55.10
2017-10-16T20:06:41.136Z,55.10
2017-10-16T20:09:09.816Z,55.20
2017-10-16T20:11:38.467Z,55.20
2017-10-16T20:14:06.560Z,55.20
2017-10-16T20:16:35.235Z,55.30
2017-10-16T20:19:03.164Z,55.30
2017-10-16T20:21:35.165Z,56.10
2017-10-16T20:24:03.237Z,55.40
2017-10-16T20:26:31.255Z,55.50
2017-10-16T20:28:59.196Z,55.50
2017-10-16T20:31:27.860Z,55.80
2017-10-16T20:33:55.997Z,55.80
2017-10-16T20:36:25.063Z,55.70
2017-10-16T20:38:54.893Z,55.80
2017-10-16T20:41:22.908Z,55.70
2017-10-16T20:43:51.302Z,55.80
2017-10-16T20:46:19.996Z,55.80
2017-10-16T20:48:49.043Z,55.80
2017-10-16T20:51:16.978Z,55.80
2017-10-16T20:53:45.763Z,56.30
2017-10-16T20:56:14.056Z,55.60
2017-10-16T20:58:42.176Z,55.60
2017-10-16T21:01:10.088Z,55.50
2017-10-16T21:03:37.976Z,55.50
2017-10-16T21:06:05.977Z,55.30
2017-10-16T21:08:34.001Z,55.10
2017-10-16T21:11:02.011Z,55.30
2017-10-16T21:13:30.561Z,55.20
2017-10-16T21:15:58.435Z,55.20
2017-10-16T21:18:26.283Z,55.10
2017-10-16T21:20:54.268Z,54.90
2017-10-16T21:23:22.152Z,55.00
2017-10-16T21:25:50.052Z,54.90
2017-10-16T21:28:18.724Z,54.90
2017-10-16T21:30:46.665Z,54.90
2017-10-16T21:33:14.584Z,54.90
2017-10-16T21:35:42.501Z,54.80
2017-10-16T21:38:10.417Z,54.80
2017-10-16T21:40:38.344Z,54.80
2017-10-16T21:43:06.488Z,54.80
2017-10-16T21:45:34.370Z,54.70
2017-10-16T21:48:02.264Z,54.70
2017-10-16T21:50:30.120Z,54.90
2017-10-16T21:52:57.988Z,54.90
2017-10-16T21:55:25.940Z,54.90
2017-10-16T21:57:53.863Z,55.00
2017-10-16T22:00:21.840Z,54.80
2017-10-16T22:02:49.728Z,54.90
2017-10-16T22:05:17.592Z,54.60
2017-10-16T22:07:45.537Z,54.60
2017-10-16T22:10:13.465Z,54.50
2017-10-16T22:12:41.354Z,54.00
2017-10-16T22:15:10.065Z,53.50
2017-10-16T22:17:37.987Z,53.50
2017-10-16T22:20:05.930Z,53.50
2017-10-16T22:22:33.875Z,53.50
2017-10-16T22:25:01.745Z,53.60
2017-10-16T22:27:29.584Z,53.50
2017-10-16T22:29:58.301Z,53.90
2017-10-16T22:32:26.238Z,53.80
2017-10-16T22:34:55.281Z,53.90
2017-10-16T22:37:23.208Z,53.90
2017-10-16T22:39:51.173Z,53.90
2017-10-16T22:42:19.896Z,54.10
2017-10-16T22:44:48.600Z,54.00
2017-10-16T22:47:32.196Z,54.20
2017-10-16T22:50:00.218Z,54.30
2017-10-16T22:52:28.118Z,54.30
2017-10-16T22:54:56.803Z,54.00
2017-10-16T22:57:25.524Z,53.70
2017-10-16T22:59:53.410Z,53.70
2017-10-16T23:02:21.337Z,53.80
2017-10-16T23:04:49.302Z,54.00
2017-10-16T23:07:17.159Z,53.90
2017-10-16T23:09:45.869Z,53.80
2017-10-16T23:12:13.736Z,53.80
2017-10-16T23:14:41.662Z,53.90
2017-10-16T23:17:10.344Z,54.00
2017-10-16T23:19:38.472Z,54.00
2017-10-16T23:22:06.353Z,54.00
2017-10-16T23:24:34.437Z,54.10
2017-10-16T23:27:02.328Z,54.20
2017-10-16T23:29:30.986Z,54.30
2017-10-16T23:31:58.881Z,54.20
2017-10-16T23:34:27.599Z,54.20
2017-10-16T23:36:55.513Z,54.30
2017-10-16T23:39:23.417Z,54.30
2017-10-16T23:41:51.383Z,54.30
2017-10-16T23:44:20.677Z,54.20
2017-10-16T23:46:49.352Z,54.10
2017-10-16T23:49:18.123Z,54.20
2017-10-16T23:51:46.111Z,54.20
2017-10-16T23:54:14.838Z,54.20
2017-10-16T23:56:42.888Z,54.20
2017-10-16T23:59:10.796Z,54.20
